Time;durP1;ratioP1;P1;durP2;ratioP2;P2;SDS_P1;SDS_P2;PMS_P1;PMS_P2;Temp;Humidity;BMP_temperature;BMP_pressure;BME280_temperature;BME280_humidity;BME280_pressure;Samples;Min_cycle;Max_cycle;Signal;HPM_P1;HPM_P2
2023/02/12 00:01:33;;;;;;;41.53;24.85;;;;;;;-2.23;100.00;101211.69;5055056;28;20490;-75
2023/02/12 00:03:59;;;;;;;43.03;25.92;;;;;;;-2.51;100.00;101125.81;5072326;28;20032;-75
2023/02/12 00:06:25;;;;;;;44.50;27.00;;;;;;;-2.19;100.00;101191.13;5054287;28;20036;-75
2023/02/12 00:08:53;;;;;;;52.05;31.08;;;;;;;-2.37;100.00;101162.97;5072347;28;20032;-73
2023/02/12 00:11:22;;;;;;;43.88;25.88;;;;;;;-2.50;100.00;101145.81;5072728;28;20034;-75
2023/02/12 00:13:47;;;;;;;42.33;24.35;;;;;;;-2.42;100.00;101210.84;5072612;28;20024;-74
2023/02/12 00:16:16;;;;;;;40.47;23.33;;;;;;;-2.41;100.00;101193.47;5054216;28;20029;-75
2023/02/12 00:18:42;;;;;;;39.60;21.42;;;;;;;-2.60;100.00;101166.09;5072067;28;20032;-74
2023/02/12 00:21:07;;;;;;;38.53;21.98;;;;;;;-2.14;100.00;101156.47;5072598;28;20067;-74
2023/02/12 00:23:35;;;;;;;38.33;22.80;;;;;;;-1.81;100.00;101211.03;5072206;28;20116;-74
2023/02/12 00:26:04;;;;;;;38.80;21.88;;;;;;;-1.72;100.00;101224.66;5054376;28;20020;-74
2023/02/12 00:28:29;;;;;;;37.95;22.15;;;;;;;-2.21;100.00;101217.59;5072377;28;20533;-73
2023/02/12 00:30:55;;;;;;;38.70;20.98;;;;;;;-2.07;100.00;101158.41;5072330;28;20029;-74
2023/02/12 00:33:20;;;;;;;38.25;21.38;;;;;;;-2.58;100.00;101156.22;5054165;28;20089;-74
2023/02/12 00:35:54;;;;;;;37.70;20.80;;;;;;;-2.26;100.00;101149.34;5054534;28;20036;-74
2023/02/12 00:38:20;;;;;;;34.60;20.40;;;;;;;-2.10;100.00;101145.84;5071784;28;20039;-74
2023/02/12 00:40:45;;;;;;;34.63;20.58;;;;;;;-2.16;100.00;101211.16;5054164;28;20033;-74
2023/02/12 00:43:11;;;;;;;35.00;21.23;;;;;;;-2.36;100.00;101151.38;5071656;28;20493;-74
2023/02/12 00:45:36;;;;;;;34.58;19.65;;;;;;;-2.07;100.00;101180.81;5071814;28;20106;-74
2023/02/12 00:48:03;;;;;;;32.75;19.95;;;;;;;-2.31;100.00;101144.94;5071277;28;20077;-74
2023/02/12 00:50:28;;;;;;;35.13;20.10;;;;;;;-2.29;100.00;101124.31;5072078;28;20032;-74
2023/02/12 00:52:55;;;;;;;45.17;24.70;;;;;;;-2.22;100.00;101137.88;5072382;28;20033;-74
2023/02/12 00:55:20;;;;;;;60.17;30.42;;;;;;;-2.12;100.00;101187.25;5072004;28;20029;-74
2023/02/12 00:57:46;;;;;;;46.25;26.95;;;;;;;-2.12;100.00;101195.56;5071918;28;20029;-73
2023/02/12 01:00:12;;;;;;;48.33;26.38;;;;;;;-2.48;100.00;101133.41;5071615;28;20098;-74
2023/02/12 01:02:38;;;;;;;51.67;26.63;;;;;;;-2.15;100.00;101190.47;5070695;28;20446;-74
2023/02/12 01:05:04;;;;;;;41.40;23.40;;;;;;;-2.07;100.00;101198.25;5070128;28;20116;-75
2023/02/12 01:07:29;;;;;;;41.75;23.38;;;;;;;-2.06;100.00;101190.84;5071409;28;20425;-74
2023/02/12 01:09:54;;;;;;;37.95;22.77;;;;;;;-2.06;100.00;101185.84;5053605;28;20056;-74
2023/02/12 01:12:20;;;;;;;38.17;22.02;;;;;;;-2.23;100.00;101119.56;5071293;28;20071;-74
2023/02/12 01:14:45;;;;;;;35.75;20.90;;;;;;;-2.03;100.00;101168.56;5053373;28;20024;-75
2023/02/12 01:17:11;;;;;;;38.08;21.65;;;;;;;-2.59;100.00;101123.00;5070974;28;20367;-74
2023/02/12 01:19:36;;;;;;;36.63;21.23;;;;;;;-2.19;100.00;101183.66;5070987;28;20491;-73
2023/02/12 01:22:01;;;;;;;34.97;20.15;;;;;;;-2.40;100.00;101113.06;5071368;28;20082;-75
2023/02/12 01:24:27;;;;;;;36.65;19.58;;;;;;;-2.06;100.00;101175.06;5071390;28;20029;-75
2023/02/12 01:26:52;;;;;;;39.42;19.85;;;;;;;-1.70;100.00;101161.59;5070840;28;20051;-73
2023/02/12 01:29:18;;;;;;;45.88;26.60;;;;;;;-2.42;100.00;101111.28;5071485;28;20103;-74
2023/02/12 01:31:43;;;;;;;54.83;29.02;;;;;;;-1.59;100.00;101147.94;5071442;28;20031;-74
2023/02/12 01:34:09;;;;;;;54.58;28.83;;;;;;;-1.77;100.00;101158.03;5071383;28;20106;-74
2023/02/12 01:36:35;;;;;;;50.03;28.83;;;;;;;-1.66;100.00;101150.13;5071405;28;20044;-75
2023/02/12 01:39:01;;;;;;;52.17;29.50;;;;;;;-2.13;100.00;101091.78;5071088;28;20032;-75
2023/02/12 01:41:30;;;;;;;61.25;34.85;;;;;;;-1.69;100.00;101148.38;5070795;28;20032;-75
2023/02/12 01:44:05;;;;;;;127.47;65.22;;;;;;;-1.43;100.00;101127.81;5071085;28;20029;-76
2023/02/12 01:46:30;;;;;;;117.78;53.95;;;;;;;-1.85;100.00;101126.13;5071143;28;20025;-74
2023/02/12 01:48:56;;;;;;;96.85;46.55;;;;;;;-2.25;100.00;101068.00;5070938;28;20051;-74
2023/02/12 01:51:23;;;;;;;53.55;30.60;;;;;;;-1.95;100.00;101134.00;5053181;28;20115;-75
2023/02/12 01:53:53;;;;;;;46.70;27.85;;;;;;;-2.30;100.00;101071.97;5071315;28;20070;-74
2023/02/12 01:56:19;;;;;;;62.40;32.92;;;;;;;-2.44;100.00;101085.47;5071715;28;20031;-75
2023/02/12 01:58:47;;;;;;;72.40;37.72;;;;;;;-2.07;100.00;101118.56;5071168;28;20035;-74
2023/02/12 02:01:18;;;;;;;69.30;36.10;;;;;;;-2.07;100.00;101133.50;5075009;28;20032;-73
2023/02/12 02:03:47;;;;;;;48.00;28.60;;;;;;;-2.72;100.00;101129.09;5056927;28;20513;-74
2023/02/12 02:06:20;;;;;;;49.65;28.45;;;;;;;-2.42;100.00;101127.06;5056754;28;20029;-75
2023/02/12 02:08:46;;;;;;;49.50;27.98;;;;;;;-2.55;100.00;101112.41;5056651;28;20037;-74
2023/02/12 02:16:51;;;;;;;51.58;27.65;;;;;;;-2.42;100.00;101049.06;5074753;28;20086;-74
2023/02/12 02:19:54;;;;;;;50.15;26.92;;;;;;;-2.24;100.00;101100.44;5075038;28;20039;-74
2023/02/12 02:22:47;;;;;;;50.88;27.60;;;;;;;-2.76;100.00;101030.25;5074482;28;20036;-74
2023/02/12 02:25:40;;;;;;;61.97;32.63;;;;;;;-2.41;100.00;101088.94;5074901;28;20119;-74
2023/02/12 02:28:33;;;;;;;46.70;27.08;;;;;;;-2.46;100.00;101077.97;5056530;28;20414;-74
2023/02/12 02:31:11;;;;;;;51.22;26.63;;;;;;;-2.21;100.00;101073.19;5056822;28;20059;-72
2023/02/12 02:34:02;;;;;;;54.38;29.90;;;;;;;-2.51;100.00;101047.03;5074365;28;20056;-74
2023/02/12 02:36:40;;;;;;;42.70;24.63;;;;;;;-2.03;100.00;101026.63;5057043;28;20036;-72
2023/02/12 02:39:24;;;;;;;42.88;23.48;;;;;;;-1.78;100.00;101071.59;5074001;28;20631;-74
2023/02/12 02:42:00;;;;;;;41.28;22.98;;;;;;;-1.70;100.00;101076.06;5057062;28;20123;-75
2023/02/12 02:44:42;;;;;;;42.90;24.55;;;;;;;-1.89;100.00;101077.81;5074723;28;20033;-75
2023/02/12 02:47:11;;;;;;;40.28;21.90;;;;;;;-1.51;100.00;101068.47;5074755;28;20056;-75
2023/02/12 02:49:47;;;;;;;42.33;23.08;;;;;;;-1.46;100.00;101079.44;5074184;28;20074;-74
2023/02/12 02:52:48;;;;;;;46.42;22.85;;;;;;;-1.79;100.00;101089.84;5074299;28;20051;-74
2023/02/12 02:55:17;;;;;;;29.33;17.05;;;;;;;-1.93;100.00;101057.69;5073947;28;20054;-73
2023/02/12 02:57:54;;;;;;;46.72;23.70;;;;;;;-1.97;100.00;101046.78;5073732;28;20117;-74
2023/02/12 03:00:40;;;;;;;43.38;23.67;;;;;;;-1.53;100.00;101115.78;5074561;28;20044;-74
2023/02/12 03:03:18;;;;;;;43.72;24.65;;;;;;;-2.10;100.00;101054.53;5073220;28;20127;-74
2023/02/12 03:05:51;;;;;;;42.55;24.85;;;;;;;-1.80;100.00;101122.16;5071377;28;20379;-74
2023/02/12 03:08:27;;;;;;;45.30;25.75;;;;;;;-2.29;100.00;101083.63;5094197;28;20023;-74
2023/02/12 03:10:58;;;;;;;44.30;26.60;;;;;;;-2.46;100.00;101015.75;5093906;28;20052;-75
2023/02/12 03:13:35;;;;;;;44.60;25.48;;;;;;;-1.64;100.00;101104.53;5073576;28;20048;-74
2023/02/12 03:16:14;;;;;;;43.08;26.48;;;;;;;-2.02;100.00;101055.69;5068702;28;20051;-71
2023/02/12 03:18:51;;;;;;;41.28;24.02;;;;;;;-2.16;100.00;101099.09;5073553;28;20028;-74
2023/02/12 03:21:24;;;;;;;41.08;25.45;;;;;;;-1.87;100.00;101118.59;5074025;28;20082;-74
2023/02/12 03:24:22;;;;;;;44.95;24.85;;;;;;;-2.19;100.00;101075.72;5073982;28;20490;-75
2023/02/12 03:26:54;;;;;;;43.17;25.67;;;;;;;-1.57;100.00;101099.00;5059004;28;20139;-74
2023/02/12 03:29:20;;;;;;;41.17;25.83;;;;;;;-2.13;100.00;101038.63;5073683;28;20032;-74
2023/02/12 03:32:05;;;;;;;44.08;26.27;;;;;;;-1.83;100.00;101115.44;5055630;28;20505;-74
2023/02/12 03:34:49;;;;;;;44.38;26.50;;;;;;;-1.66;100.00;101110.25;5077495;28;20119;-74
2023/02/12 03:37:26;;;;;;;39.55;25.42;;;;;;;-1.86;100.00;101095.38;5071737;28;20028;-75
2023/02/12 03:40:06;;;;;;;44.40;26.92;;;;;;;-1.71;100.00;101101.75;5055613;28;20059;-75
2023/02/12 03:42:51;;;;;;;44.35;24.75;;;;;;;-1.72;100.00;101032.78;5081152;28;20081;-74
2023/02/12 03:45:41;;;;;;;38.80;24.42;;;;;;;-1.62;100.00;101107.09;5075921;28;20032;-74
2023/02/12 03:48:22;;;;;;;46.28;26.48;;;;;;;-1.57;100.00;101120.56;5049274;28;20518;-74
2023/02/12 03:51:01;;;;;;;42.97;23.80;;;;;;;-1.53;100.00;101104.94;5053466;28;20029;-74
2023/02/12 03:53:28;;;;;;;41.75;23.08;;;;;;;-1.54;100.00;101110.72;5035234;28;20415;-75
2023/02/12 03:56:18;;;;;;;42.50;23.23;;;;;;;-1.60;100.00;101073.94;5035294;28;20041;-75
2023/02/12 03:58:44;;;;;;;43.78;25.17;;;;;;;-1.65;100.00;101127.75;5052128;28;20071;-73
2023/02/12 04:01:11;;;;;;;43.45;24.85;;;;;;;-1.78;100.00;101111.47;5052423;28;20534;-74
2023/02/12 04:03:37;;;;;;;43.80;24.77;;;;;;;-1.77;100.00;101100.72;5031451;28;20072;-74
2023/02/12 04:06:03;;;;;;;48.65;26.65;;;;;;;-1.83;100.00;101077.19;5034732;28;20068;-73
2023/02/12 04:08:31;;;;;;;44.45;25.85;;;;;;;-1.81;100.00;101065.66;5052361;28;20127;-74
2023/02/12 04:11:20;;;;;;;43.67;25.55;;;;;;;-1.40;100.00;101117.94;5052146;28;20025;-74
2023/02/12 04:14:10;;;;;;;42.60;25.40;;;;;;;-1.37;100.00;101119.69;5052716;28;20021;-75
2023/02/12 04:16:56;;;;;;;50.53;29.70;;;;;;;-1.66;100.00;101140.16;5052640;28;20040;-73
2023/02/12 04:19:48;;;;;;;43.78;26.10;;;;;;;-1.44;100.00;101135.19;5052447;28;20495;-74
2023/02/12 04:22:25;;;;;;;44.28;25.27;;;;;;;-1.62;100.00;101144.47;5051527;28;20032;-75
2023/02/12 04:25:02;;;;;;;40.38;24.88;;;;;;;-1.39;100.00;101146.22;5034459;28;20041;-74
2023/02/12 04:27:39;;;;;;;48.20;26.15;;;;;;;-1.23;100.00;101139.34;5052645;28;20116;-74
2023/02/12 04:30:13;;;;;;;46.50;25.17;;;;;;;-1.30;100.00;101146.56;5052427;28;20033;-75
2023/02/12 04:33:02;;;;;;;43.10;25.00;;;;;;;-1.50;100.00;101148.28;5052404;28;20061;-74
2023/02/12 04:35:32;;;;;;;50.67;25.95;;;;;;;-1.87;100.00;101067.91;5034036;28;20078;-74
2023/02/12 04:38:14;;;;;;;36.20;20.27;;;;;;;-1.57;100.00;101160.44;5034469;28;20033;-75
2023/02/12 04:40:40;;;;;;;62.83;34.72;;;;;;;-1.19;100.00;101152.81;5051608;28;20045;-74
2023/02/12 04:43:07;;;;;;;52.92;29.55;;;;;;;-1.70;100.00;101133.38;5051874;28;20033;-74
2023/02/12 04:45:34;;;;;;;50.88;29.55;;;;;;;-1.78;100.00;101113.97;5052031;28;20075;-75
2023/02/12 04:48:00;;;;;;;61.30;34.75;;;;;;;-1.59;100.00;101105.56;5056410;28;20495;-75
2023/02/12 04:50:36;;;;;;;59.50;33.75;;;;;;;-1.72;100.00;101105.88;5072116;28;20505;-75
2023/02/12 04:53:01;;;;;;;53.95;31.17;;;;;;;-1.48;100.00;101180.75;5072543;28;20119;-76
2023/02/12 04:55:27;;;;;;;46.30;29.13;;;;;;;-1.43;100.00;101177.66;5071668;28;20064;-75
2023/02/12 04:57:52;;;;;;;48.28;29.10;;;;;;;-1.09;100.00;101175.66;5071503;28;20058;-76
2023/02/12 05:00:18;;;;;;;51.65;30.80;;;;;;;-1.72;100.00;101135.78;5071955;28;20090;-75
2023/02/12 05:02:43;;;;;;;49.60;28.67;;;;;;;-1.57;100.00;101130.53;5071659;28;20024;-76
2023/02/12 05:05:09;;;;;;;54.80;32.13;;;;;;;-1.37;100.00;101152.97;5071834;28;20028;-75
2023/02/12 05:07:34;;;;;;;63.72;35.63;;;;;;;-1.65;100.00;101189.19;5054091;28;20032;-75
2023/02/12 05:09:59;;;;;;;62.75;35.55;;;;;;;-1.19;100.00;101183.56;5071184;28;20119;-74
2023/02/12 05:12:25;;;;;;;55.85;33.22;;;;;;;-1.31;100.00;101185.63;5054224;28;20021;-74
2023/02/12 05:14:50;;;;;;;60.80;33.90;;;;;;;-1.21;100.00;101206.78;5072029;28;20111;-75
2023/02/12 05:17:16;;;;;;;50.97;29.48;;;;;;;-1.33;100.00;101178.88;5054048;28;20130;-75
2023/02/12 05:19:41;;;;;;;50.75;28.45;;;;;;;-1.59;100.00;101196.94;5071464;28;20033;-75
2023/02/12 05:22:06;;;;;;;50.60;28.58;;;;;;;-1.06;100.00;101210.72;5053535;28;20025;-75
2023/02/12 05:24:32;;;;;;;49.40;28.40;;;;;;;-1.01;100.00;101211.72;5070911;28;20071;-75
2023/02/12 05:26:57;;;;;;;51.78;28.48;;;;;;;-1.68;100.00;101157.53;5053780;28;20066;-75
2023/02/12 05:29:23;;;;;;;53.08;28.67;;;;;;;-1.40;100.00;101165.31;5071730;28;20028;-74
2023/02/12 05:31:48;;;;;;;50.95;30.30;;;;;;;-1.79;100.00;101123.88;5071908;28;20028;-75
2023/02/12 05:34:14;;;;;;;55.47;31.50;;;;;;;-1.08;100.00;101219.78;5071187;28;20032;-75
2023/02/12 05:36:39;;;;;;;52.65;30.67;;;;;;;-1.22;100.00;101182.63;5071535;28;20432;-75
2023/02/12 05:39:06;;;;;;;50.15;30.63;;;;;;;-1.27;100.00;101182.44;5071604;28;20056;-75
2023/02/12 05:41:34;;;;;;;53.33;31.13;;;;;;;-1.30;100.00;101181.47;5053890;28;20036;-76
2023/02/12 05:44:00;;;;;;;52.08;29.80;;;;;;;-1.40;100.00;101177.78;5054009;28;20533;-75
2023/02/12 05:46:26;;;;;;;55.75;29.05;;;;;;;-1.64;100.00;101173.47;5070746;28;20107;-76
2023/02/12 05:48:51;;;;;;;53.28;30.15;;;;;;;-1.32;100.00;101233.78;5070487;28;20043;-75
2023/02/12 05:51:20;;;;;;;53.88;29.02;;;;;;;-1.43;100.00;101185.16;5071249;28;20055;-76
2023/02/12 05:53:47;;;;;;;48.88;25.88;;;;;;;-1.42;100.00;101199.28;5071605;28;20024;-76
2023/02/12 05:56:16;;;;;;;56.15;29.52;;;;;;;-1.32;100.00;101247.88;5053875;28;20090;-76
2023/02/12 05:58:45;;;;;;;59.58;30.83;;;;;;;-1.38;100.00;101198.63;5071374;28;20040;-76
2023/02/12 06:01:13;;;;;;;43.95;26.95;;;;;;;-1.30;100.00;101266.25;5071356;28;20099;-76
2023/02/12 06:03:38;;;;;;;53.50;27.33;;;;;;;-1.51;100.00;101185.63;5070861;28;20054;-76
2023/02/12 06:06:04;;;;;;;54.47;29.10;;;;;;;-1.43;100.00;101254.09;5071287;28;20032;-76
2023/02/12 06:08:30;;;;;;;66.90;35.70;;;;;;;-0.94;100.00;101257.72;5053471;28;20032;-76
2023/02/12 06:11:00;;;;;;;53.78;31.35;;;;;;;-0.71;100.00;101261.09;5071444;28;20078;-77
2023/02/12 06:13:25;;;;;;;68.70;38.13;;;;;;;-1.13;100.00;101197.94;5071040;28;20047;-77
2023/02/12 06:15:50;;;;;;;88.57;44.15;;;;;;;-0.90;100.00;101269.53;5052780;28;20020;-74
2023/02/12 06:18:16;;;;;;;75.88;39.70;;;;;;;-0.87;100.00;101254.66;5053090;28;20032;-75
2023/02/12 06:20:41;;;;;;;69.30;38.80;;;;;;;-0.97;100.00;101267.59;5070251;28;20504;-74
2023/02/12 06:23:06;;;;;;;59.40;34.58;;;;;;;-0.75;100.00;101230.16;5051968;28;20028;-75
2023/02/12 06:25:32;;;;;;;68.38;35.60;;;;;;;-1.02;100.00;101214.16;5070250;28;20351;-76
2023/02/12 06:27:57;;;;;;;135.55;65.68;;;;;;;-0.87;100.00;101285.47;5070636;28;20032;-73
2023/02/12 06:30:23;;;;;;;87.95;52.30;;;;;;;-1.38;100.00;101205.25;5077436;28;20036;-75
2023/02/12 06:32:49;;;;;;;67.82;39.50;;;;;;;-0.77;100.00;101274.19;5070761;28;20039;-73
2023/02/12 06:35:15;;;;;;;64.78;35.47;;;;;;;-0.67;100.00;101233.81;5067055;28;20043;-75
2023/02/12 06:37:40;;;;;;;56.60;32.88;;;;;;;1.82;100.00;101231.09;5069883;28;20037;-75
2023/02/12 06:40:06;;;;;;;51.40;31.98;;;;;;;-0.01;100.00;101245.38;5071068;28;20852;-80
2023/02/12 06:42:31;;;;;;;78.47;44.28;;;;;;;-0.69;100.00;101267.84;5053584;28;20044;-78
2023/02/12 06:44:57;;;;;;;60.72;34.85;;;;;;;-1.13;100.00;101221.22;5053012;28;20495;-79
2023/02/12 06:47:22;;;;;;;56.50;32.17;;;;;;;-1.26;100.00;101221.56;5037394;28;20029;-77
2023/02/12 06:49:48;;;;;;;59.05;32.58;;;;;;;-1.27;100.00;101216.50;5060324;28;21465;-78
2023/02/12 06:52:13;;;;;;;51.67;27.58;;;;;;;-0.88;100.00;101263.81;5057146;28;20090;-76
2023/02/12 06:54:39;;;;;;;53.42;28.23;;;;;;;-0.66;100.00;101270.47;5074423;28;20028;-77
2023/02/12 06:57:04;;;;;;;55.60;33.85;;;;;;;-0.90;100.00;101257.06;5057014;28;20028;-76
2023/02/12 06:59:30;;;;;;;64.15;35.58;;;;;;;-0.57;100.00;101268.31;5073901;28;20079;-76
2023/02/12 07:01:55;;;;;;;48.40;28.60;;;;;;;-0.55;100.00;101276.69;5056623;28;20031;-78
2023/02/12 07:04:21;;;;;;;62.10;31.80;;;;;;;-0.28;100.00;101284.38;5056607;28;20391;-79
2023/02/12 07:06:46;;;;;;;60.58;34.25;;;;;;;-0.34;100.00;101281.66;5074657;28;20029;-80
2023/02/12 07:09:12;;;;;;;84.35;45.58;;;;;;;-0.52;100.00;101238.53;5075004;28;20029;-78
2023/02/12 07:11:38;;;;;;;77.03;41.47;;;;;;;-0.44;100.00;101248.00;5074190;28;20112;-73
2023/02/12 07:14:03;;;;;;;61.50;34.30;;;;;;;-0.28;100.00;101270.22;5054824;28;20033;-71
2023/02/12 07:16:28;;;;;;;61.20;35.22;;;;;;;0.04;100.00;101283.84;5072638;28;20435;-71
2023/02/12 07:18:54;;;;;;;53.60;31.60;;;;;;;-0.33;100.00;101264.22;5081409;28;20074;-76
2023/02/12 07:21:20;;;;;;;47.25;28.05;;;;;;;0.01;100.00;101216.28;5075570;28;20044;-74
2023/02/12 07:23:48;;;;;;;58.70;33.80;;;;;;;-0.13;100.00;101248.28;5072876;28;20060;-74
2023/02/12 07:26:14;;;;;;;51.60;30.65;;;;;;;0.40;100.00;101304.28;5070691;28;20065;-74
2023/02/12 07:28:40;;;;;;;49.13;30.80;;;;;;;0.09;100.00;101269.03;5060537;28;20130;-74
2023/02/12 07:31:12;;;;;;;57.92;35.63;;;;;;;-0.18;100.00;101227.28;5072914;28;20475;-74
2023/02/12 07:33:38;;;;;;;;;;;;;;;0.35;100.00;101309.13;5072864;28;20025;-72
2023/02/12 07:36:05;;;;;;;50.80;29.00;;;;;;;0.11;100.00;101250.78;5072724;28;20069;-73
2023/02/12 07:38:31;;;;;;;52.42;30.92;;;;;;;0.37;100.00;101296.69;5080630;28;20042;-74
2023/02/12 07:41:10;;;;;;;58.92;35.42;;;;;;;0.55;100.00;101275.66;5074592;28;20103;-72
2023/02/12 07:43:36;;;;;;;57.30;33.45;;;;;;;0.33;100.00;101233.22;5055108;28;20040;-73
2023/02/12 07:46:25;;;;;;;60.63;35.30;;;;;;;1.06;100.00;101295.63;5055070;28;20024;-72
2023/02/12 07:48:51;;;;;;;62.55;36.95;;;;;;;0.69;100.00;101243.56;5054973;28;20044;-73
2023/02/12 07:51:18;;;;;;;67.20;38.50;;;;;;;1.28;100.00;101293.84;5057553;28;20044;-73
2023/02/12 07:53:43;;;;;;;68.95;38.60;;;;;;;1.24;100.00;101296.19;5074768;28;20036;-75
2023/02/12 07:56:19;;;;;;;55.28;33.60;;;;;;;1.49;100.00;101291.09;5071724;28;20043;-72
2023/02/12 07:58:46;;;;;;;58.25;33.33;;;;;;;1.15;100.00;101239.16;5054426;28;20055;-73
2023/02/12 08:01:12;;;;;;;49.97;29.40;;;;;;;1.64;100.00;101292.41;5054741;28;20125;-74
2023/02/12 08:03:37;;;;;;;48.95;28.75;;;;;;;1.91;100.00;101284.84;5072125;28;20113;-71
2023/02/12 08:06:18;;;;;;;55.50;31.08;;;;;;;1.90;100.00;101278.13;5071188;28;20020;-68
2023/02/12 08:08:45;;;;;;;85.50;45.30;;;;;;;3.76;100.00;101258.38;5052358;28;20029;-71
2023/02/12 08:11:12;;;;;;;73.25;38.03;;;;;;;1.67;100.00;101159.69;5051378;28;20147;-72
2023/02/12 08:13:38;;;;;;;81.32;42.88;;;;;;;2.82;100.00;101273.00;5051588;28;20029;-70
2023/02/12 08:16:09;;;;;;;106.75;49.20;;;;;;;1.80;100.00;101263.66;5065943;28;20036;-70
2023/02/12 08:18:35;;;;;;;60.95;30.45;;;;;;;2.17;100.00;101283.03;5071356;28;20414;-73
2023/02/12 08:21:02;;;;;;;42.65;26.35;;;;;;;2.40;100.00;101235.16;5071515;28;20128;-69
2023/02/12 08:23:28;;;;;;;44.38;24.60;;;;;;;2.42;100.00;101277.84;5071329;28;20020;-69
2023/02/12 08:25:53;;;;;;;49.53;30.80;;;;;;;2.63;100.00;101273.38;5071210;28;20403;-68
2023/02/12 08:28:19;;;;;;;75.85;41.35;;;;;;;2.59;100.00;101296.72;5070901;28;20090;-67
2023/02/12 08:30:44;;;;;;;92.55;46.58;;;;;;;2.63;100.00;101306.00;5070512;28;20454;-68
2023/02/12 08:33:10;;;;;;;56.45;34.20;;;;;;;2.50;100.00;101278.88;5070700;28;20024;-69
2023/02/12 08:35:35;;;;;;;55.72;36.65;;;;;;;3.25;100.00;101278.22;5070695;28;20484;-69
2023/02/12 08:38:00;;;;;;;63.67;41.63;;;;;;;2.83;100.00;101283.91;5071164;28;20029;-72
2023/02/12 08:40:26;;;;;;;55.55;33.38;;;;;;;3.30;100.00;101256.56;5070744;28;20486;-69
2023/02/12 08:42:52;;;;;;;53.35;34.25;;;;;;;3.60;100.00;101284.00;5070828;28;20032;-69
2023/02/12 08:45:17;;;;;;;47.58;29.88;;;;;;;3.61;100.00;101284.84;5052836;28;20074;-69
2023/02/12 08:47:42;;;;;;;48.80;29.90;;;;;;;3.63;100.00;101258.06;5052387;28;20029;-70
2023/02/12 08:50:08;;;;;;;69.50;37.92;;;;;;;3.96;100.00;101296.50;5073175;28;20032;-71
2023/02/12 08:52:34;;;;;;;52.60;30.65;;;;;;;4.24;100.00;101246.72;5072924;28;20115;-71
2023/02/12 08:55:00;;;;;;;58.58;33.75;;;;;;;4.29;100.00;101249.31;5070216;28;20033;-71
2023/02/12 08:57:25;;;;;;;54.28;34.17;;;;;;;4.69;100.00;101291.13;5069913;28;20399;-71
2023/02/12 08:59:51;;;;;;;52.90;34.10;;;;;;;4.49;100.00;101288.28;5070318;28;20476;-70
2023/02/12 09:02:16;;;;;;;49.72;32.05;;;;;;;4.91;100.00;101250.38;5070175;28;20573;-71
2023/02/12 09:04:41;;;;;;;53.13;33.58;;;;;;;5.33;100.00;101298.03;5071822;28;20037;-71
2023/02/12 09:07:07;;;;;;;60.38;39.00;;;;;;;5.55;100.00;101315.13;5070577;28;20041;-70
2023/02/12 09:09:32;;;;;;;75.57;42.83;;;;;;;4.85;100.00;101223.38;5052875;28;20032;-71
2023/02/12 09:11:58;;;;;;;54.47;34.88;;;;;;;5.29;100.00;101313.09;5052238;28;20020;-72
2023/02/12 09:14:23;;;;;;;53.63;34.53;;;;;;;5.71;100.00;101302.75;5070012;28;20055;-71
2023/02/12 09:16:51;;;;;;;65.50;40.72;;;;;;;5.76;100.00;101296.13;5071029;28;20029;-71
2023/02/12 09:19:17;;;;;;;57.70;36.28;;;;;;;6.16;100.00;101289.88;5070957;28;20028;-72
2023/02/12 09:21:43;;;;;;;54.72;34.95;;;;;;;6.09;100.00;101245.22;5070922;28;20253;-71
2023/02/12 09:24:08;;;;;;;49.70;31.77;;;;;;;5.96;100.00;101256.84;5070514;28;20434;-70
2023/02/12 09:26:34;;;;;;;53.80;33.28;;;;;;;6.11;100.00;101277.22;5070455;28;20036;-70
2023/02/12 09:29:01;;;;;;;51.13;32.80;;;;;;;5.77;100.00;101307.91;5052360;28;20419;-70
2023/02/12 09:31:28;;;;;;;48.15;31.73;;;;;;;5.88;100.00;101278.63;5070184;28;20020;-71
2023/02/12 09:33:59;;;;;;;51.95;32.75;;;;;;;6.07;99.99;101256.97;5069965;28;20056;-70
2023/02/12 09:36:25;;;;;;;36.45;23.05;;;;;;;5.89;100.00;101274.41;5070537;28;20029;-70
2023/02/12 09:38:50;;;;;;;41.78;25.75;;;;;;;5.88;100.00;101297.97;5070312;28;20032;-69
2023/02/12 09:41:31;;;;;;;41.33;26.65;;;;;;;6.34;100.00;101310.28;5070235;28;20020;-70
2023/02/12 09:44:05;;;;;;;43.40;25.75;;;;;;;6.15;99.87;101318.50;5070470;28;20106;-70
2023/02/12 09:46:50;;;;;;;40.60;25.48;;;;;;;6.30;98.00;101318.66;5069616;28;20032;-70
2023/02/12 09:49:34;;;;;;;41.33;27.30;;;;;;;6.59;96.05;101321.50;5068951;28;20199;-70
2023/02/12 09:52:00;;;;;;;37.58;24.30;;;;;;;6.01;94.94;101267.00;5070014;28;20044;-68
2023/02/12 09:54:41;;;;;;;36.10;22.83;;;;;;;6.32;98.99;101268.19;5069623;28;20032;-70
2023/02/12 09:57:18;;;;;;;37.10;24.48;;;;;;;5.99;96.84;101253.50;5052190;28;20429;-70
2023/02/12 09:59:53;;;;;;;38.78;24.73;;;;;;;6.55;95.68;101279.34;5070204;28;20135;-71
2023/02/12 10:02:21;;;;;;;35.97;24.13;;;;;;;6.50;92.37;101225.38;5069649;28;20043;-70
2023/02/12 10:04:47;;;;;;;32.00;22.13;;;;;;;6.38;91.43;101264.00;5069704;28;20483;-70
2023/02/12 10:07:15;;;;;;;29.02;18.67;;;;;;;7.54;87.14;101328.16;5070339;28;20028;-71
2023/02/12 10:10:19;;;;;;;24.08;16.20;;;;;;;7.79;85.12;101326.59;5052238;28;20410;-69
2023/02/12 10:12:58;;;;;;;26.88;16.92;;;;;;;8.27;84.29;101319.25;5018828;28;20036;-73
2023/02/12 10:15:53;;;;;;;27.85;17.02;;;;;;;8.30;79.31;101323.47;5070749;28;20024;-73
2023/02/12 10:18:38;;;;;;;24.27;15.98;;;;;;;8.39;76.38;101331.94;5052959;28;20032;-72
2023/02/12 10:21:55;;;;;;;22.55;14.70;;;;;;;8.29;75.99;101322.63;5072865;28;20030;-74
2023/02/12 10:24:47;;;;;;;21.35;14.38;;;;;;;8.32;72.03;101337.81;5047367;28;20156;-72
2023/02/12 10:27:19;;;;;;;22.50;14.45;;;;;;;8.31;73.49;101330.22;5054379;28;20055;-70
2023/02/12 10:29:47;;;;;;;20.88;14.25;;;;;;;8.57;70.89;101309.19;5053547;28;20044;-71
2023/02/12 10:32:18;;;;;;;20.02;13.48;;;;;;;8.49;69.12;101308.31;5057878;28;20127;-71
2023/02/12 10:34:45;;;;;;;50.27;20.13;;;;;;;8.71;67.87;101320.16;5070041;28;20040;-70
2023/02/12 10:37:10;;;;;;;28.60;17.15;;;;;;;8.98;68.19;101329.47;5073847;28;20032;-69
2023/02/12 10:39:42;;;;;;;26.42;15.68;;;;;;;8.80;67.64;101301.59;5073121;28;20042;-71
2023/02/12 10:42:31;;;;;;;22.95;14.73;;;;;;;8.90;68.20;101328.63;5073926;28;20020;-70
2023/02/12 10:44:56;;;;;;;22.13;14.15;;;;;;;8.59;65.64;101332.84;5073249;28;20028;-69
2023/02/12 10:47:23;;;;;;;26.08;15.90;;;;;;;8.42;66.30;101314.19;5075809;28;20495;-71
2023/02/12 10:49:55;;;;;;;22.70;15.35;;;;;;;8.38;70.56;101286.31;5055256;28;20084;-71
2023/02/12 10:52:23;;;;;;;29.05;18.00;;;;;;;8.53;68.23;101337.91;5069533;28;20425;-70
2023/02/12 10:54:49;;;;;;;33.40;21.13;;;;;;;8.26;70.58;101330.19;5073533;28;20029;-70
2023/02/12 10:57:26;;;;;;;22.60;15.43;;;;;;;8.23;68.23;101309.91;5072618;28;20383;-71
2023/02/12 10:59:56;;;;;;;26.60;17.38;;;;;;;8.47;68.54;101354.75;5054997;28;20120;-70
2023/02/12 11:02:32;;;;;;;22.02;13.98;;;;;;;8.17;66.30;101363.06;5077913;28;20051;-71
2023/02/12 11:04:59;;;;;;;19.90;13.55;;;;;;;8.20;66.02;101365.59;5073275;28;20135;-71
2023/02/12 11:07:26;;;;;;;21.40;14.32;;;;;;;7.93;65.44;101331.72;5054988;28;20039;-71
2023/02/12 11:09:55;;;;;;;20.83;14.07;;;;;;;7.78;66.59;101312.25;5073201;28;20039;-72
2023/02/12 11:12:46;;;;;;;24.40;14.80;;;;;;;8.19;65.76;101376.59;5073370;28;20028;-75
2023/02/12 11:15:24;;;;;;;23.30;15.40;;;;;;;8.12;65.88;101333.50;5056097;28;20028;-73
2023/02/12 11:18:06;;;;;;;24.00;14.35;;;;;;;8.24;67.42;101367.31;5073605;28;20428;-75
2023/02/12 11:20:49;;;;;;;22.38;15.30;;;;;;;8.34;67.95;101370.78;5073626;28;20024;-76
2023/02/12 11:23:22;;;;;;;23.85;14.95;;;;;;;8.04;65.63;101305.63;5053740;28;20090;-77
2023/02/12 11:26:04;;;;;;;25.67;16.77;;;;;;;8.47;65.17;101367.44;5053598;28;20036;-74
2023/02/12 11:28:32;;;;;;;19.92;14.68;;;;;;;8.20;64.98;101383.34;5035854;28;20036;-76